Chicago (MDW/KMDW)

Information

Location
Chicago-Midway, IL
Local Time
01:31 / 1:31 am
GMT Time
07:31 / 7:31 am
Gates
No FAA reported delays
METAR KMDW 200653Z 22013KT 10SM SCT250 OVC300 03/M02 A2980 RMK AO2 SLP098 T00331022
TAF KMDW 200528Z 2006/2112 21015G22KT P6SM OVC250 WS020/23050KT FM200800 23011KT P6SM OVC250 FM202100 23008KT P6SM BKN025 FM210100 22006KT 5SM BR OVC012 FM210400 21005KT 3SM BR OVC006 FM210800 20004KT 2SM -DZ BR OVC004